createdAt,value
2023-04-08T00:01:42.857Z,29.67
2023-04-08T00:04:09.972Z,30.75
2023-04-08T00:06:52.067Z,30.70
2023-04-08T00:09:18.765Z,30.85
2023-04-08T00:11:45.386Z,29.42
2023-04-08T00:14:12.066Z,30.85
2023-04-08T00:16:38.739Z,30.52
2023-04-08T00:19:06.863Z,28.50
2023-04-08T00:21:33.567Z,28.50
2023-04-08T00:24:00.486Z,29.33
2023-04-08T00:26:27.290Z,29.20
2023-04-08T00:28:54.011Z,29.10
2023-04-08T00:31:20.887Z,28.65
2023-04-08T00:33:47.780Z,29.10
2023-04-08T00:36:14.432Z,28.63
2023-04-08T00:38:41.239Z,29.30
2023-04-08T00:41:07.947Z,29.35
2023-04-08T00:43:34.661Z,29.73
2023-04-08T00:46:01.529Z,30.00
2023-04-08T00:48:29.700Z,30.48
2023-04-08T00:50:56.390Z,30.63
2023-04-08T00:53:24.289Z,32.00
2023-04-08T00:55:52.390Z,31.60
2023-04-08T00:58:19.386Z,30.92
2023-04-08T01:00:53.002Z,31.23
2023-04-08T01:03:42.422Z,31.05
2023-04-08T01:06:28.238Z,31.98
2023-04-08T01:08:55.154Z,32.35
2023-04-08T01:11:21.946Z,31.30
2023-04-08T01:13:51.483Z,32.70
2023-04-08T01:16:19.137Z,33.38
2023-04-08T01:18:47.937Z,32.22
2023-04-08T01:21:16.545Z,35.28
2023-04-08T01:24:04.619Z,32.78
2023-04-08T01:26:31.695Z,32.97
2023-04-08T01:29:01.846Z,34.40
2023-04-08T01:31:29.027Z,34.78
2023-04-08T01:33:57.657Z,35.25
2023-04-08T01:36:26.152Z,38.15
2023-04-08T01:38:52.845Z,36.47
2023-04-08T01:41:21.266Z,36.70
2023-04-08T01:43:49.755Z,36.67
2023-04-08T01:46:17.029Z,37.08
2023-04-08T01:48:45.113Z,36.47
2023-04-08T01:51:12.454Z,36.28
2023-04-08T01:53:39.304Z,40.33
2023-04-08T01:56:09.440Z,39.00
2023-04-08T02:01:17.063Z,37.95
2023-04-08T02:03:45.131Z,38.85
2023-04-08T02:06:11.867Z,38.85
2023-04-08T02:08:38.485Z,42.00
2023-04-08T02:11:05.642Z,41.85
2023-04-08T02:13:32.927Z,41.80
2023-04-08T02:16:24.205Z,42.53
2023-04-08T02:18:58.259Z,44.92
2023-04-08T02:21:44.311Z,43.90
2023-04-08T02:24:13.880Z,46.00
2023-04-08T02:26:43.880Z,44.92
2023-04-08T02:29:15.783Z,47.50
2023-04-08T02:31:43.943Z,44.60
2023-04-08T02:34:11.844Z,48.00
2023-04-08T02:36:40.970Z,49.35
2023-04-08T02:39:07.789Z,47.00
2023-04-08T02:41:34.670Z,48.20
2023-04-08T02:44:01.288Z,49.38
2023-04-08T02:46:27.964Z,48.70
2023-04-08T02:48:54.658Z,51.38
2023-04-08T02:51:21.569Z,48.35
2023-04-08T02:53:48.230Z,47.70
2023-04-08T02:56:14.910Z,49.80
2023-04-08T02:58:41.519Z,47.90
2023-04-08T03:01:09.082Z,47.85
2023-04-08T03:03:36.738Z,48.00
2023-04-08T03:06:03.773Z,49.00
2023-04-08T03:08:30.546Z,49.75
2023-04-08T03:10:57.168Z,50.47
2023-04-08T03:13:23.955Z,49.90
2023-04-08T03:15:50.858Z,49.95
2023-04-08T03:18:18.009Z,50.70
2023-04-08T03:20:44.679Z,49.50
2023-04-08T03:23:11.268Z,49.00
2023-04-08T03:25:38.138Z,50.80
2023-04-08T03:28:04.846Z,50.20
2023-04-08T03:30:31.841Z,48.50
2023-04-08T03:32:58.617Z,47.88
2023-04-08T03:35:25.576Z,48.10
2023-04-08T03:37:52.436Z,48.65
2023-04-08T03:40:19.143Z,48.75
2023-04-08T03:42:46.226Z,50.38
2023-04-08T03:45:12.834Z,51.63
2023-04-08T03:47:39.515Z,50.00
2023-04-08T03:50:06.639Z,50.20
2023-04-08T03:52:33.406Z,50.20
2023-04-08T03:54:59.995Z,50.45
2023-04-08T03:57:26.603Z,50.55
2023-04-08T03:59:53.495Z,50.10
2023-04-08T04:02:20.324Z,49.67
2023-04-08T04:04:47.096Z,48.22
2023-04-08T04:07:13.712Z,47.13
2023-04-08T04:09:40.440Z,48.05
2023-04-08T04:12:07.090Z,47.50
2023-04-08T04:14:33.716Z,47.50
2023-04-08T04:17:00.343Z,46.35
2023-04-08T04:19:31.297Z,44.38
2023-04-08T04:21:57.930Z,48.45
2023-04-08T04:24:24.592Z,48.30
2023-04-08T04:26:51.237Z,48.28
2023-04-08T04:29:17.932Z,49.75
2023-04-08T04:31:44.605Z,48.92
2023-04-08T04:34:11.432Z,48.58
2023-04-08T04:36:38.024Z,49.33
2023-04-08T04:39:04.688Z,48.17
2023-04-08T04:41:31.486Z,48.05
2023-04-08T04:43:58.288Z,49.00
2023-04-08T04:46:24.941Z,48.22
2023-04-08T04:48:51.899Z,47.97
2023-04-08T04:51:18.753Z,48.10
2023-04-08T04:53:45.417Z,46.35
2023-04-08T04:56:12.041Z,47.22
2023-04-08T04:58:39.032Z,47.60
2023-04-08T05:01:06.082Z,47.95
2023-04-08T05:03:32.715Z,47.13
2023-04-08T05:05:59.650Z,46.92
2023-04-08T05:08:27.843Z,48.35
2023-04-08T05:10:56.189Z,43.58
2023-04-08T05:13:22.968Z,45.22
2023-04-08T05:15:49.921Z,46.55
2023-04-08T05:18:16.623Z,44.15
2023-04-08T05:20:43.293Z,46.22
2023-04-08T05:23:09.967Z,44.70
2023-04-08T05:25:36.912Z,42.05
2023-04-08T05:28:04.335Z,45.90
2023-04-08T05:30:31.545Z,44.60
2023-04-08T05:33:00.311Z,44.70
2023-04-08T05:35:28.100Z,44.50
2023-04-08T05:37:54.740Z,45.75
2023-04-08T05:40:21.497Z,43.67
2023-04-08T05:42:48.294Z,42.95
2023-04-08T05:45:15.155Z,44.53
2023-04-08T05:47:41.897Z,43.78
2023-04-08T05:50:08.957Z,44.35
2023-04-08T05:52:35.620Z,44.55
2023-04-08T05:55:02.253Z,43.58
2023-04-08T05:57:28.849Z,41.03
2023-04-08T05:59:55.610Z,43.25
2023-04-08T06:02:22.453Z,42.33
2023-04-08T06:04:49.192Z,43.03
2023-04-08T06:07:16.023Z,40.42
2023-04-08T06:09:44.334Z,40.13
2023-04-08T06:12:12.052Z,40.63
2023-04-08T06:14:38.668Z,42.05
2023-04-08T06:17:05.518Z,38.70
2023-04-08T06:19:32.290Z,38.97
2023-04-08T06:21:59.362Z,40.58
2023-04-08T06:24:29.540Z,38.92
2023-04-08T06:29:23.834Z,37.38
2023-04-08T06:31:51.263Z,38.20
2023-04-08T06:34:18.005Z,37.20
2023-04-08T06:36:44.674Z,37.15
2023-04-08T06:39:11.355Z,39.60
2023-04-08T06:41:38.112Z,37.28
2023-04-08T06:44:04.873Z,35.20
2023-04-08T06:46:31.541Z,37.85
2023-04-08T06:48:58.148Z,36.85
2023-04-08T06:51:24.909Z,36.92
2023-04-08T06:53:52.030Z,34.70
2023-04-08T06:56:18.755Z,36.75
2023-04-08T06:58:45.497Z,35.33
2023-04-08T07:01:12.378Z,35.53
2023-04-08T07:03:39.143Z,33.00
2023-04-08T07:06:05.947Z,36.63
2023-04-08T07:08:32.893Z,32.42
2023-04-08T07:10:59.517Z,35.20
2023-04-08T07:13:26.136Z,34.65
2023-04-08T07:15:52.816Z,32.78
2023-04-08T07:18:21.417Z,33.75
2023-04-08T07:20:54.459Z,34.28
2023-04-08T07:23:21.681Z,35.47
2023-04-08T07:25:48.372Z,34.05
2023-04-08T07:28:15.202Z,31.67
2023-04-08T07:30:41.855Z,33.67
2023-04-08T07:33:08.683Z,35.45
2023-04-08T07:35:35.685Z,32.75
2023-04-08T07:38:02.486Z,33.05
2023-04-08T07:40:29.851Z,35.20
2023-04-08T07:42:56.852Z,36.35
2023-04-08T07:45:23.527Z,35.22
2023-04-08T07:47:50.565Z,37.33
2023-04-08T07:50:17.590Z,35.70
2023-04-08T07:52:44.362Z,37.15
2023-04-08T07:55:11.562Z,37.40
2023-04-08T07:57:38.502Z,34.17
2023-04-08T08:00:05.803Z,35.45
2023-04-08T08:02:34.287Z,33.85
2023-04-08T08:05:03.252Z,34.67
2023-04-08T08:07:30.201Z,34.70
2023-04-08T08:09:56.821Z,33.50
2023-04-08T08:12:23.532Z,31.95
2023-04-08T08:14:51.050Z,34.42
2023-04-08T08:17:17.696Z,31.75
2023-04-08T08:19:44.382Z,33.03
2023-04-08T08:22:12.227Z,31.08
2023-04-08T08:24:38.875Z,31.75
2023-04-08T08:27:06.392Z,32.65
2023-04-08T08:29:33.650Z,31.95
2023-04-08T08:32:00.307Z,32.88
2023-04-08T08:34:27.217Z,31.98
2023-04-08T08:36:53.855Z,32.17
2023-04-08T08:39:20.688Z,29.20
2023-04-08T08:41:47.367Z,30.88
2023-04-08T08:44:14.660Z,30.67
2023-04-08T08:46:45.439Z,31.20
2023-04-08T08:49:12.518Z,31.25
2023-04-08T08:51:40.842Z,31.10
2023-04-08T08:54:08.533Z,29.70
2023-04-08T08:56:35.401Z,29.23
2023-04-08T08:59:02.194Z,28.70
2023-04-08T09:01:40.609Z,29.20
2023-04-08T09:04:08.662Z,28.23
2023-04-08T09:06:36.833Z,27.48
2023-04-08T09:09:06.089Z,28.60
2023-04-08T09:11:33.488Z,27.37
2023-04-08T09:14:00.153Z,28.60
2023-04-08T09:16:27.801Z,28.65
2023-04-08T09:18:54.673Z,28.45
2023-04-08T09:21:27.363Z,27.45
2023-04-08T09:23:54.342Z,29.98
2023-04-08T09:26:24.516Z,28.45
2023-04-08T09:29:25.586Z,28.90
2023-04-08T09:31:57.771Z,27.92
2023-04-08T09:34:27.708Z,27.25
2023-04-08T09:36:55.746Z,26.45
2023-04-08T09:39:22.955Z,27.40
2023-04-08T09:41:51.161Z,27.33
2023-04-08T09:44:21.106Z,28.48
2023-04-08T09:49:29.956Z,25.95
2023-04-08T09:52:08.226Z,26.98
2023-04-08T09:54:59.902Z,26.50
2023-04-08T09:57:55.661Z,25.52
2023-04-08T10:00:28.808Z,25.52
2023-04-08T10:03:11.529Z,25.33
2023-04-08T10:05:40.739Z,23.73
2023-04-08T10:08:07.902Z,22.65
2023-04-08T10:10:40.281Z,22.92
2023-04-08T10:13:08.090Z,21.95
2023-04-08T10:15:36.882Z,21.98
2023-04-08T10:18:04.536Z,21.77
2023-04-08T10:20:34.577Z,20.55
2023-04-08T10:23:01.759Z,20.92
2023-04-08T10:25:30.773Z,20.60
2023-04-08T10:27:57.638Z,19.45
2023-04-08T10:30:33.357Z,18.77
2023-04-08T10:33:00.903Z,19.90
2023-04-08T10:35:31.353Z,18.92
2023-04-08T10:37:59.163Z,19.02
2023-04-08T10:40:26.320Z,19.98
2023-04-08T10:42:56.690Z,17.77
2023-04-08T10:45:23.973Z,18.48
2023-04-08T10:47:52.032Z,18.23
2023-04-08T10:50:21.261Z,19.75
2023-04-08T10:52:52.167Z,19.48
2023-04-08T10:55:29.578Z,18.88
2023-04-08T10:57:58.215Z,17.65
2023-04-08T11:00:35.719Z,17.13
2023-04-08T11:03:13.712Z,17.00
2023-04-08T11:05:42.534Z,15.50
2023-04-08T11:08:09.213Z,14.48
2023-04-08T11:10:39.480Z,15.20
2023-04-08T11:15:37.332Z,12.95
2023-04-08T11:18:05.644Z,12.00
2023-04-08T11:20:36.233Z,13.25
2023-04-08T11:23:03.610Z,12.90
2023-04-08T11:25:30.566Z,11.82
2023-04-08T11:27:57.369Z,12.43
2023-04-08T11:30:24.438Z,12.27
2023-04-08T11:32:52.454Z,12.50
2023-04-08T11:35:20.436Z,12.35
2023-04-08T11:37:47.818Z,11.82
2023-04-08T11:40:22.303Z,11.63
2023-04-08T11:42:49.992Z,12.05
2023-04-08T11:45:18.254Z,11.77
2023-04-08T11:47:45.960Z,11.43
2023-04-08T11:50:13.005Z,11.60
2023-04-08T11:52:53.359Z,10.57
2023-04-08T11:58:02.452Z,10.63
2023-04-08T12:00:29.224Z,11.88
2023-04-08T12:02:56.142Z,11.98
2023-04-08T12:05:22.926Z,11.55
2023-04-08T12:07:49.601Z,11.25
2023-04-08T12:10:16.364Z,11.90
2023-04-08T12:12:43.124Z,10.93
2023-04-08T12:15:10.482Z,11.73
2023-04-08T12:17:38.737Z,11.40
2023-04-08T12:20:06.618Z,11.60
2023-04-08T12:22:33.747Z,12.35
2023-04-08T12:25:00.495Z,12.07
2023-04-08T12:27:27.106Z,11.68
2023-04-08T12:29:53.874Z,11.55
2023-04-08T12:32:21.619Z,12.10
2023-04-08T12:34:48.334Z,11.55
2023-04-08T12:37:15.054Z,12.43
2023-04-08T12:39:41.994Z,12.07
2023-04-08T12:42:09.235Z,11.15
2023-04-08T12:44:35.995Z,11.98
2023-04-08T12:47:02.710Z,11.65
2023-04-08T12:49:30.824Z,11.38
2023-04-08T12:51:58.927Z,11.32
2023-04-08T12:54:25.657Z,11.02
2023-04-08T12:56:52.264Z,11.48
2023-04-08T12:59:19.275Z,11.45
2023-04-08T13:01:46.161Z,11.43
2023-04-08T13:04:12.840Z,11.27
2023-04-08T13:06:39.517Z,10.70
2023-04-08T13:09:06.181Z,11.25
2023-04-08T13:11:34.095Z,11.15
2023-04-08T13:14:00.768Z,10.52
2023-04-08T13:16:27.512Z,11.10
2023-04-08T13:18:54.222Z,11.48
2023-04-08T13:21:21.512Z,10.88
2023-04-08T13:23:48.261Z,10.23
2023-04-08T13:26:14.891Z,10.00
2023-04-08T13:28:55.906Z,9.82
2023-04-08T13:31:23.718Z,10.63
2023-04-08T13:33:50.583Z,9.98
2023-04-08T13:36:18.977Z,10.40
2023-04-08T13:38:46.228Z,10.65
2023-04-08T13:41:12.971Z,9.35
2023-04-08T13:43:39.651Z,10.05
2023-04-08T13:46:06.324Z,10.35
2023-04-08T13:48:33.016Z,10.57
2023-04-08T13:50:59.622Z,10.27
2023-04-08T13:53:26.322Z,10.73
2023-04-08T13:55:55.217Z,11.23
2023-04-08T13:58:24.350Z,10.68
2023-04-08T14:00:51.916Z,10.00
2023-04-08T14:03:19.466Z,10.07
2023-04-08T14:05:46.501Z,10.18
2023-04-08T14:08:13.850Z,8.95
2023-04-08T14:10:41.940Z,10.02
2023-04-08T14:13:09.347Z,11.05
2023-04-08T14:15:36.313Z,10.88
2023-04-08T14:18:03.131Z,10.15
2023-04-08T14:20:30.447Z,10.73
2023-04-08T14:22:57.119Z,10.75
2023-04-08T14:25:24.705Z,9.43
2023-04-08T14:27:58.552Z,13.43
2023-04-08T14:30:27.227Z,20.80
2023-04-08T14:32:54.611Z,13.55
2023-04-08T14:35:21.647Z,11.50
2023-04-08T14:37:48.352Z,10.80
2023-04-08T14:40:15.032Z,10.45
2023-04-08T14:42:41.847Z,13.13
2023-04-08T14:45:09.093Z,12.00
2023-04-08T14:47:36.020Z,12.93
2023-04-08T14:50:02.830Z,11.73
2023-04-08T14:52:29.593Z,10.93
2023-04-08T14:54:56.473Z,11.40
2023-04-08T14:57:23.127Z,12.25
2023-04-08T14:59:49.816Z,11.05
2023-04-08T15:02:16.729Z,12.13
2023-04-08T15:04:43.449Z,10.75
2023-04-08T15:07:10.227Z,10.25
2023-04-08T15:09:36.890Z,10.43
2023-04-08T15:12:03.807Z,10.68
2023-04-08T15:14:30.557Z,10.30
2023-04-08T15:16:57.233Z,9.75
2023-04-08T15:19:23.973Z,13.30
2023-04-08T15:21:50.675Z,10.63
2023-04-08T15:24:17.464Z,11.05
2023-04-08T15:26:44.090Z,10.77
2023-04-08T15:29:11.083Z,11.45
2023-04-08T15:31:37.883Z,10.88
2023-04-08T15:34:04.652Z,11.10
2023-04-08T15:36:31.406Z,10.75
2023-04-08T15:38:58.063Z,11.65
2023-04-08T15:41:24.751Z,13.90
2023-04-08T15:43:53.086Z,16.60
2023-04-08T15:46:22.942Z,18.38
2023-04-08T15:48:50.810Z,16.33
2023-04-08T15:51:18.043Z,12.02
2023-04-08T15:53:44.906Z,12.15
2023-04-08T15:56:18.443Z,13.15
2023-04-08T15:58:46.192Z,12.20
2023-04-08T16:01:13.691Z,13.13
2023-04-08T16:03:40.941Z,13.10
2023-04-08T16:06:08.587Z,12.93
2023-04-08T16:08:35.320Z,13.25
2023-04-08T16:11:03.574Z,13.23
2023-04-08T16:13:30.780Z,14.23
2023-04-08T16:15:58.523Z,13.45
2023-04-08T16:18:25.729Z,13.68
2023-04-08T16:20:52.616Z,15.43
2023-04-08T16:23:19.652Z,16.08
2023-04-08T16:25:46.711Z,16.20
2023-04-08T16:28:13.470Z,15.10
2023-04-08T16:30:43.514Z,16.25
2023-04-08T16:33:14.141Z,16.70
2023-04-08T16:35:40.804Z,17.80
2023-04-08T16:38:07.586Z,18.20
2023-04-08T16:40:34.963Z,18.13
2023-04-08T16:43:02.353Z,19.23
2023-04-08T16:45:30.177Z,19.23
2023-04-08T16:47:57.318Z,23.92
2023-04-08T16:50:24.382Z,22.17
2023-04-08T16:52:51.140Z,20.85
2023-04-08T16:55:18.159Z,22.48
2023-04-08T16:57:44.872Z,21.88
2023-04-08T17:00:11.865Z,20.90
2023-04-08T17:02:38.684Z,21.98
2023-04-08T17:05:06.319Z,22.30
2023-04-08T17:07:32.988Z,21.77
2023-04-08T17:09:59.886Z,22.30
2023-04-08T17:12:26.998Z,21.35
2023-04-08T17:14:54.109Z,21.38
2023-04-08T17:17:20.825Z,21.42
2023-04-08T17:19:47.526Z,23.08
2023-04-08T17:22:14.182Z,23.58
2023-04-08T17:24:40.889Z,21.67
2023-04-08T17:27:07.486Z,21.48
2023-04-08T17:29:34.178Z,21.38
2023-04-08T17:32:01.355Z,21.05
2023-04-08T17:34:29.176Z,22.35
2023-04-08T17:36:56.899Z,20.65
2023-04-08T17:39:23.548Z,22.25
2023-04-08T17:41:50.177Z,20.80
2023-04-08T17:44:17.400Z,20.65
2023-04-08T17:46:44.134Z,21.10
2023-04-08T17:49:14.204Z,23.33
2023-04-08T17:54:07.676Z,21.95
2023-04-08T17:56:34.405Z,20.23
2023-04-08T17:59:01.850Z,21.63
2023-04-08T18:01:28.747Z,21.48
2023-04-08T18:03:56.052Z,22.70
2023-04-08T18:06:22.847Z,21.88
2023-04-08T18:08:49.802Z,21.63
2023-04-08T18:11:16.430Z,22.25
2023-04-08T18:13:43.105Z,21.92
2023-04-08T18:16:17.260Z,22.70
2023-04-08T18:18:44.528Z,22.20
2023-04-08T18:21:11.210Z,23.73
2023-04-08T18:23:37.921Z,25.00
2023-04-08T18:26:04.648Z,25.55
2023-04-08T18:28:31.563Z,26.45
2023-04-08T18:30:58.405Z,25.65
2023-04-08T18:33:25.357Z,26.55
2023-04-08T18:35:52.791Z,24.95
2023-04-08T18:38:19.662Z,27.98
2023-04-08T18:40:46.620Z,27.65
2023-04-08T18:43:13.765Z,26.85
2023-04-08T18:45:41.246Z,25.90
2023-04-08T18:48:08.373Z,27.25
2023-04-08T18:50:35.217Z,26.48
2023-04-08T18:53:02.542Z,31.60
2023-04-08T18:55:29.347Z,33.38
2023-04-08T18:57:56.225Z,34.05
2023-04-08T19:00:23.024Z,31.23
2023-04-08T19:02:50.245Z,30.80
2023-04-08T19:05:17.852Z,29.90
2023-04-08T19:07:44.654Z,26.90
2023-04-08T19:10:11.295Z,30.63
2023-04-08T19:12:38.155Z,28.73
2023-04-08T19:15:05.381Z,29.17
2023-04-08T19:17:32.120Z,30.10
2023-04-08T19:19:58.906Z,29.35
2023-04-08T19:22:25.561Z,28.98
2023-04-08T19:24:54.832Z,27.33
2023-04-08T19:27:21.817Z,26.25
2023-04-08T19:29:48.425Z,26.42
2023-04-08T19:32:15.334Z,23.38
2023-04-08T19:34:42.472Z,25.08
2023-04-08T19:37:09.315Z,24.23
2023-04-08T19:39:36.110Z,23.88
2023-04-08T19:42:02.785Z,22.25
2023-04-08T19:44:29.386Z,22.20
2023-04-08T19:46:57.872Z,24.42
2023-04-08T19:49:24.863Z,26.33
2023-04-08T19:51:51.908Z,25.33
2023-04-08T19:54:18.536Z,25.30
2023-04-08T19:56:45.643Z,29.80
2023-04-08T19:59:12.584Z,26.27
2023-04-08T20:01:40.582Z,27.25
2023-04-08T20:04:07.289Z,27.75
2023-04-08T20:06:34.846Z,28.65
2023-04-08T20:09:05.453Z,27.45
2023-04-08T20:11:33.213Z,29.05
2023-04-08T20:13:59.949Z,29.05
2023-04-08T20:16:26.809Z,30.67
2023-04-08T20:18:53.661Z,29.15
2023-04-08T20:21:20.326Z,29.60
2023-04-08T20:23:47.384Z,29.08
2023-04-08T20:26:14.924Z,29.50
2023-04-08T20:28:43.546Z,32.85
2023-04-08T20:31:10.456Z,30.60
2023-04-08T20:33:43.757Z,31.40
2023-04-08T20:36:12.462Z,33.78
2023-04-08T20:38:39.821Z,31.17
2023-04-08T20:41:07.130Z,32.22
2023-04-08T20:43:34.087Z,33.85
2023-04-08T20:46:01.067Z,34.35
2023-04-08T20:48:29.644Z,36.22
2023-04-08T20:50:57.532Z,33.50
2023-04-08T20:53:24.605Z,33.58
2023-04-08T20:55:51.938Z,31.95
2023-04-08T20:58:18.688Z,34.35
2023-04-08T21:00:47.468Z,32.88
2023-04-08T21:03:15.453Z,34.28
2023-04-08T21:05:42.344Z,34.83
2023-04-08T21:08:09.427Z,31.08
2023-04-08T21:10:36.190Z,33.13
2023-04-08T21:13:02.961Z,34.50
2023-04-08T21:15:29.748Z,33.50
2023-04-08T21:17:56.470Z,33.83
2023-04-08T21:20:23.351Z,33.08
2023-04-08T21:22:50.103Z,30.13
2023-04-08T21:25:18.048Z,32.20
2023-04-08T21:27:44.869Z,30.17
2023-04-08T21:30:11.930Z,29.25
2023-04-08T21:32:38.947Z,30.67
2023-04-08T21:35:05.860Z,31.13
2023-04-08T21:37:32.533Z,31.40
2023-04-08T21:39:59.162Z,32.33
2023-04-08T21:42:26.416Z,28.90
2023-04-08T21:44:53.070Z,27.38
2023-04-08T21:47:19.723Z,31.38
2023-04-08T21:49:46.490Z,28.27
2023-04-08T21:52:13.245Z,31.55
2023-04-08T21:54:39.886Z,29.08
2023-04-08T21:57:06.536Z,30.02
2023-04-08T21:59:33.201Z,31.45
2023-04-08T22:01:59.944Z,32.42
2023-04-08T22:04:27.839Z,30.88
2023-04-08T22:06:54.636Z,31.10
2023-04-08T22:09:21.531Z,29.73
2023-04-08T22:11:48.218Z,30.60
2023-04-08T22:14:15.594Z,32.40
2023-04-08T22:16:43.102Z,31.95
2023-04-08T22:19:09.864Z,30.52
2023-04-08T22:21:36.652Z,33.20
2023-04-08T22:24:03.945Z,35.95
2023-04-08T22:26:30.576Z,36.30
2023-04-08T22:28:57.181Z,36.15
2023-04-08T22:31:24.047Z,35.80
2023-04-08T22:33:50.648Z,34.72
2023-04-08T22:36:17.275Z,34.92
2023-04-08T22:38:43.925Z,35.10
2023-04-08T22:41:20.940Z,35.90
2023-04-08T22:43:48.040Z,34.05
2023-04-08T22:46:15.167Z,37.35
2023-04-08T22:48:41.944Z,37.08
2023-04-08T22:51:09.284Z,35.20
2023-04-08T22:53:36.484Z,33.42
2023-04-08T22:56:03.801Z,33.80
2023-04-08T22:58:31.035Z,35.22
2023-04-08T23:00:58.286Z,39.17
2023-04-08T23:03:25.036Z,35.10
2023-04-08T23:05:51.821Z,37.95
2023-04-08T23:08:18.476Z,39.47
2023-04-08T23:10:45.328Z,40.05
2023-04-08T23:13:13.971Z,38.22
2023-04-08T23:15:40.862Z,37.78
2023-04-08T23:18:07.566Z,39.42
2023-04-08T23:20:35.506Z,38.80
2023-04-08T23:23:03.483Z,34.38
2023-04-08T23:25:30.604Z,36.78
2023-04-08T23:27:57.333Z,37.05
2023-04-08T23:30:23.932Z,36.65
2023-04-08T23:32:50.870Z,34.72
2023-04-08T23:35:17.887Z,35.25
2023-04-08T23:37:44.624Z,37.08
2023-04-08T23:40:11.472Z,35.92
2023-04-08T23:42:38.179Z,37.92
2023-04-08T23:45:05.915Z,35.95
2023-04-08T23:47:32.549Z,34.58
2023-04-08T23:49:59.431Z,35.22
2023-04-08T23:52:26.221Z,35.53
2023-04-08T23:54:52.835Z,35.67
2023-04-08T23:57:20.397Z,37.60
2023-04-08T23:59:47.755Z,34.90
